Time,TemperatureF,DewpointF,PressureIn,WindDirection,WindDirectionDegrees,WindSpeedMPH,WindSpeedGustMPH,Humidity,HourlyPrecipIn,Conditions,Clouds,dailyrainin,SoftwareType,DateUTC
2013-06-14 00:00:00,60.9,55.0,29.89,NE,51,2.0,2.0,81,0.00,,OVC003,0.00,VWS V14.01,2013-06-14 04:00:00,
2013-06-14 00:01:00,61.0,55.1,29.89,NE,51,2.0,0.0,81,0.00,,OVC003,0.13,VWS V14.01,2013-06-14 04:01:00,
2013-06-14 00:02:00,61.0,55.1,29.89,NE,51,2.0,0.0,81,0.00,,OVC003,0.13,VWS V14.01,2013-06-14 04:02:00,
2013-06-14 00:03:00,60.9,55.0,29.89,NE,51,2.0,2.0,81,0.00,,OVC003,0.13,VWS V14.01,2013-06-14 04:03:00,
2013-06-14 00:05:00,60.9,55.0,29.89,NE,51,2.0,2.0,81,0.00,,OVC003,0.13,VWS V14.01,2013-06-14 04:05:00,
2013-06-14 00:06:00,60.8,54.9,29.89,NE,51,2.0,0.0,81,0.00,,OVC003,0.00,VWS V14.01,2013-06-14 04:06:00,
2013-06-14 00:10:00,60.6,54.8,29.89,NE,51,2.0,2.0,81,0.00,,OVC003,0.00,VWS V14.01,2013-06-14 04:10:00,
2013-06-14 00:11:00,60.7,54.8,29.89,NE,51,2.0,0.0,81,0.00,,OVC003,0.00,VWS V14.01,2013-06-14 04:11:00,
2013-06-14 00:15:00,60.4,54.9,29.90,NE,51,2.0,0.0,82,0.00,,OVC003,0.00,VWS V14.01,2013-06-14 04:15:00,
2013-06-14 00:16:00,60.5,55.0,29.89,NE,51,2.0,0.0,82,0.00,,OVC003,0.00,VWS V14.01,2013-06-14 04:16:00,
2013-06-14 00:20:00,60.2,54.7,29.90,NE,51,2.0,0.0,82,0.00,,OVC003,0.00,VWS V14.01,2013-06-14 04:20:00,
2013-06-14 00:21:00,60.4,54.9,29.90,NE,51,2.0,0.0,82,0.00,,OVC003,0.00,VWS V14.01,2013-06-14 04:21:00,
2013-06-14 00:25:00,60.0,54.5,29.90,NE,51,2.0,0.0,82,0.00,,OVC003,0.00,VWS V14.01,2013-06-14 04:25:00,
2013-06-14 00:26:00,60.2,54.7,29.90,NE,51,2.0,0.0,82,0.00,,OVC003,0.00,VWS V14.01,2013-06-14 04:26:00,
2013-06-14 00:30:00,59.8,54.6,29.90,NE,51,2.0,0.0,83,0.00,,OVC003,0.00,VWS V14.01,2013-06-14 04:30:00,
2013-06-14 00:31:00,60.0,54.8,29.90,NE,51,2.0,0.0,83,0.00,,OVC003,0.00,VWS V14.01,2013-06-14 04:31:00,
2013-06-14 00:35:00,59.6,54.4,29.90,NE,51,2.0,0.0,83,0.00,,OVC003,0.00,VWS V14.01,2013-06-14 04:35:00,
2013-06-14 00:36:00,59.8,54.6,29.90,NE,51,2.0,0.0,83,0.00,,OVC003,0.00,VWS V14.01,2013-06-14 04:36:00,
2013-06-14 00:40:00,59.4,54.6,29.90,NE,51,2.0,0.0,84,0.00,,OVC003,0.00,VWS V14.01,2013-06-14 04:40:00,
2013-06-14 00:41:00,59.6,54.4,29.90,NE,51,2.0,0.0,83,0.00,,OVC003,0.00,VWS V14.01,2013-06-14 04:41:00,
2013-06-14 00:45:00,59.1,54.3,29.91,NE,51,2.0,2.0,84,0.00,,OVC003,0.00,VWS V14.01,2013-06-14 04:45:00,
2013-06-14 00:46:00,59.4,54.6,29.90,NE,51,2.0,0.0,84,0.00,,OVC003,0.00,VWS V14.01,2013-06-14 04:46:00,
2013-06-14 00:50:00,59.0,54.2,29.91,NE,51,2.0,0.0,84,0.00,,OVC003,0.00,VWS V14.01,2013-06-14 04:50:00,
2013-06-14 00:51:00,59.0,54.2,29.91,NE,51,2.0,0.0,84,0.00,,OVC003,0.00,VWS V14.01,2013-06-14 04:51:00,
2013-06-14 00:55:00,59.0,54.2,29.91,NE,51,2.0,0.0,84,0.00,,OVC003,0.00,VWS V14.01,2013-06-14 04:55:00,
2013-06-14 00:56:00,59.0,54.2,29.91,NE,51,2.0,0.0,84,0.00,,OVC003,0.00,VWS V14.01,2013-06-14 04:56:00,
2013-06-14 01:00:00,59.0,54.5,29.91,NE,51,2.0,0.0,85,0.00,,OVC003,0.00,VWS V14.01,2013-06-14 05:00:00,
2013-06-14 01:01:00,59.0,54.5,29.91,NE,51,2.0,0.0,85,0.00,,OVC003,0.00,VWS V14.01,2013-06-14 05:01:00,
2013-06-14 01:05:00,58.9,54.4,29.91,NE,51,2.0,2.0,85,0.00,,OVC003,0.00,VWS V14.01,2013-06-14 05:05:00,
2013-06-14 01:06:00,59.0,54.5,29.91,NE,51,2.0,0.0,85,0.00,,OVC003,0.00,VWS V14.01,2013-06-14 05:06:00,
2013-06-14 01:10:00,58.8,54.3,29.91,NE,51,2.0,2.0,85,0.00,,OVC003,0.00,VWS V14.01,2013-06-14 05:10:00,
2013-06-14 01:11:00,58.9,54.4,29.91,NE,51,2.0,2.0,85,0.00,,OVC003,0.00,VWS V14.01,2013-06-14 05:11:00,
2013-06-14 01:15:00,58.7,54.2,29.91,NE,51,2.0,2.0,85,0.00,,OVC003,0.00,VWS V14.01,2013-06-14 05:15:00,
2013-06-14 01:16:00,58.7,54.2,29.91,NE,51,2.0,2.0,85,0.00,,OVC003,0.00,VWS V14.01,2013-06-14 05:16:00,
2013-06-14 01:20:00,58.6,54.1,29.91,NE,51,2.0,0.0,85,0.00,,OVC003,0.00,VWS V14.01,2013-06-14 05:20:00,
2013-06-14 01:21:00,58.7,54.2,29.91,NE,51,2.0,0.0,85,0.00,,OVC003,0.00,VWS V14.01,2013-06-14 05:21:00,
2013-06-14 01:25:00,58.5,54.0,29.91,NE,51,2.0,0.0,85,0.00,,OVC003,0.00,VWS V14.01,2013-06-14 05:25:00,
2013-06-14 01:26:00,58.6,54.1,29.91,NE,51,2.0,0.0,85,0.00,,OVC003,0.00,VWS V14.01,2013-06-14 05:26:00,
2013-06-14 01:30:00,58.4,53.9,29.91,NE,51,2.0,0.0,85,0.00,,OVC003,0.00,VWS V14.01,2013-06-14 05:30:00,
2013-06-14 01:31:00,58.5,54.0,29.91,NE,51,2.0,0.0,85,0.00,,OVC003,0.00,VWS V14.01,2013-06-14 05:31:00,
2013-06-14 01:35:00,58.2,53.7,29.91,NE,51,2.0,0.0,85,0.00,,OVC003,0.00,VWS V14.01,2013-06-14 05:35:00,
2013-06-14 01:36:00,58.3,53.8,29.91,NE,51,2.0,0.0,85,0.00,,OVC003,0.00,VWS V14.01,2013-06-14 05:36:00,
2013-06-14 01:40:00,58.1,53.6,29.91,NE,51,2.0,0.0,85,0.00,,OVC003,0.00,VWS V14.01,2013-06-14 05:40:00,
2013-06-14 01:41:00,58.2,53.7,29.91,NE,51,2.0,0.0,85,0.00,,OVC003,0.00,VWS V14.01,2013-06-14 05:41:00,
2013-06-14 01:45:00,57.8,53.3,29.91,NE,51,2.0,0.0,85,0.00,,OVC003,0.00,VWS V14.01,2013-06-14 05:45:00,
2013-06-14 01:46:00,58.0,53.5,29.91,NE,51,2.0,0.0,85,0.00,,OVC003,0.00,VWS V14.01,2013-06-14 05:46:00,
2013-06-14 01:50:00,57.6,53.5,29.91,NE,51,2.0,0.0,86,0.00,,OVC003,0.00,VWS V14.01,2013-06-14 05:50:00,
2013-06-14 01:51:00,57.8,53.7,29.91,NE,51,2.0,0.0,86,0.00,,OVC003,0.00,VWS V14.01,2013-06-14 05:51:00,
2013-06-14 01:55:00,57.5,53.3,29.91,NE,51,2.0,0.0,86,0.00,,OVC003,0.00,VWS V14.01,2013-06-14 05:55:00,
2013-06-14 01:56:00,57.6,53.5,29.91,NE,51,2.0,0.0,86,0.00,,OVC003,0.00,VWS V14.01,2013-06-14 05:56:00,
2013-06-14 02:00:00,57.3,53.2,29.92,NE,51,2.0,0.0,86,0.00,,OVC003,0.00,VWS V14.01,2013-06-14 06:00:00,
2013-06-14 02:01:00,57.4,53.2,29.91,NE,51,2.0,0.0,86,0.00,,OVC003,0.00,VWS V14.01,2013-06-14 06:01:00,
2013-06-14 02:05:00,57.2,53.4,29.92,NE,51,2.0,2.0,87,0.00,,OVC003,0.00,VWS V14.01,2013-06-14 06:05:00,
2013-06-14 02:06:00,57.2,53.4,29.92,NE,51,2.0,0.0,87,0.00,,OVC003,0.00,VWS V14.01,2013-06-14 06:06:00,
2013-06-14 02:10:00,57.1,53.3,29.92,NE,51,2.0,0.0,87,0.00,,OVC003,0.00,VWS V14.01,2013-06-14 06:10:00,
2013-06-14 02:11:00,57.1,53.3,29.92,NE,51,2.0,0.0,87,0.00,,OVC003,0.00,VWS V14.01,2013-06-14 06:11:00,
2013-06-14 02:15:00,57.0,53.2,29.93,NE,51,2.0,0.0,87,0.00,,OVC003,0.00,VWS V14.01,2013-06-14 06:15:00,
2013-06-14 02:16:00,57.1,53.3,29.92,NE,51,2.0,0.0,87,0.00,,OVC003,0.00,VWS V14.01,2013-06-14 06:16:00,
2013-06-14 02:20:00,57.0,53.2,29.93,NE,51,2.0,2.0,87,0.00,,OVC003,0.00,VWS V14.01,2013-06-14 06:20:00,
2013-06-14 02:21:00,57.0,53.2,29.93,NE,51,3.0,3.0,87,0.00,,OVC003,0.00,VWS V14.01,2013-06-14 06:21:00,
2013-06-14 02:25:00,57.1,53.3,29.93,NE,51,2.0,2.0,87,0.00,,OVC003,0.00,VWS V14.01,2013-06-14 06:25:00,
2013-06-14 02:26:00,57.0,53.2,29.93,NE,51,2.0,0.0,87,0.00,,OVC003,0.00,VWS V14.01,2013-06-14 06:26:00,
2013-06-14 02:30:00,57.1,53.3,29.93,NE,51,2.0,2.0,87,0.00,,OVC003,0.00,VWS V14.01,2013-06-14 06:30:00,
2013-06-14 02:31:00,57.1,53.3,29.93,NE,51,2.0,2.0,87,0.00,,OVC003,0.00,VWS V14.01,2013-06-14 06:31:00,
2013-06-14 02:35:00,57.1,53.3,29.93,NE,51,2.0,0.0,87,0.00,,OVC003,0.00,VWS V14.01,2013-06-14 06:35:00,
2013-06-14 02:36:00,57.1,53.3,29.93,NE,51,2.0,0.0,87,0.00,,OVC003,0.00,VWS V14.01,2013-06-14 06:36:00,
2013-06-14 02:40:00,57.0,53.2,29.93,NE,51,2.0,2.0,87,0.00,,OVC003,0.00,VWS V14.01,2013-06-14 06:40:00,
2013-06-14 02:41:00,57.1,53.3,29.93,NE,51,2.0,2.0,87,0.00,,OVC003,0.00,VWS V14.01,2013-06-14 06:41:00,
2013-06-14 02:45:00,57.0,53.2,29.93,NE,51,2.0,2.0,87,0.00,,OVC003,0.00,VWS V14.01,2013-06-14 06:45:00,
2013-06-14 02:46:00,57.0,53.2,29.93,NE,51,2.0,2.0,87,0.00,,OVC003,0.00,VWS V14.01,2013-06-14 06:46:00,
2013-06-14 02:50:00,56.9,53.1,29.93,NE,51,2.0,0.0,87,0.00,,OVC003,0.00,VWS V14.01,2013-06-14 06:50:00,
2013-06-14 02:51:00,57.0,53.2,29.93,NE,51,2.0,0.0,87,0.00,,OVC003,0.00,VWS V14.01,2013-06-14 06:51:00,
2013-06-14 02:55:00,56.7,52.9,29.93,NE,51,2.0,0.0,87,0.00,,OVC003,0.00,VWS V14.01,2013-06-14 06:55:00,
2013-06-14 02:56:00,56.8,53.0,29.93,NE,51,2.0,0.0,87,0.00,,OVC003,0.00,VWS V14.01,2013-06-14 06:56:00,
2013-06-14 03:00:00,56.6,52.8,29.93,NE,51,2.0,0.0,87,0.00,,OVC003,0.00,VWS V14.01,2013-06-14 07:00:00,
2013-06-14 03:01:00,56.7,52.9,29.93,NE,51,2.0,0.0,87,0.00,,OVC003,0.00,VWS V14.01,2013-06-14 07:01:00,
2013-06-14 03:05:00,56.4,52.6,29.93,NE,51,2.0,0.0,87,0.00,,OVC003,0.00,VWS V14.01,2013-06-14 07:05:00,
2013-06-14 03:06:00,56.5,52.7,29.93,NE,51,2.0,0.0,87,0.00,,OVC003,0.00,VWS V14.01,2013-06-14 07:06:00,
2013-06-14 03:10:00,56.2,52.4,29.93,NE,51,2.0,0.0,87,0.00,,OVC003,0.00,VWS V14.01,2013-06-14 07:10:00,
2013-06-14 03:11:00,56.4,52.6,29.93,NE,51,2.0,0.0,87,0.00,,OVC003,0.00,VWS V14.01,2013-06-14 07:11:00,
2013-06-14 03:15:00,56.0,52.5,29.93,NE,51,2.0,0.0,88,0.00,,OVC003,0.00,VWS V14.01,2013-06-14 07:15:00,
2013-06-14 03:16:00,56.2,52.7,29.93,NE,51,2.0,0.0,88,0.00,,OVC003,0.00,VWS V14.01,2013-06-14 07:16:00,
2013-06-14 03:20:00,55.8,52.3,29.93,NE,51,2.0,0.0,88,0.00,,OVC003,0.00,VWS V14.01,2013-06-14 07:20:00,
2013-06-14 03:21:00,55.9,52.4,29.93,NE,51,2.0,0.0,88,0.00,,OVC003,0.00,VWS V14.01,2013-06-14 07:21:00,
2013-06-14 03:25:00,55.5,52.0,29.93,NE,51,2.0,0.0,88,0.00,,OVC003,0.00,VWS V14.01,2013-06-14 07:25:00,
2013-06-14 03:26:00,55.7,52.2,29.93,NE,51,2.0,0.0,88,0.00,,OVC003,0.00,VWS V14.01,2013-06-14 07:26:00,
2013-06-14 03:30:00,55.3,51.8,29.93,NE,51,2.0,0.0,88,0.00,,OVC003,0.00,VWS V14.01,2013-06-14 07:30:00,
2013-06-14 03:32:00,55.5,52.0,29.93,NE,51,2.0,0.0,88,0.00,,OVC003,0.00,VWS V14.01,2013-06-14 07:32:00,
2013-06-14 03:35:00,55.1,51.9,29.93,NE,51,2.0,0.0,89,0.00,,OVC003,0.00,VWS V14.01,2013-06-14 07:35:00,
2013-06-14 03:37:00,55.3,51.8,29.93,NE,51,2.0,0.0,88,0.00,,OVC003,0.00,VWS V14.01,2013-06-14 07:37:00,
2013-06-14 03:40:00,55.0,51.8,29.93,NE,51,2.0,0.0,89,0.00,,OVC003,0.00,VWS V14.01,2013-06-14 07:40:00,
2013-06-14 03:42:00,55.1,51.9,29.93,NE,51,2.0,0.0,89,0.00,,OVC003,0.00,VWS V14.01,2013-06-14 07:42:00,
2013-06-14 03:45:00,54.9,51.7,29.93,NE,51,2.0,0.0,89,0.00,,OVC003,0.00,VWS V14.01,2013-06-14 07:45:00,
2013-06-14 03:47:00,54.9,51.7,29.93,NE,51,2.0,0.0,89,0.00,,OVC003,0.00,VWS V14.01,2013-06-14 07:47:00,
2013-06-14 03:50:00,54.7,51.5,29.93,NE,51,2.0,0.0,89,0.00,,OVC003,0.00,VWS V14.01,2013-06-14 07:50:00,
2013-06-14 03:52:00,54.8,51.6,29.93,NE,51,2.0,0.0,89,0.00,,OVC003,0.00,VWS V14.01,2013-06-14 07:52:00,
2013-06-14 03:55:00,54.5,51.3,29.93,NE,51,2.0,0.0,89,0.00,,OVC003,0.00,VWS V14.01,2013-06-14 07:55:00,
2013-06-14 03:57:00,54.7,51.5,29.93,NE,51,2.0,0.0,89,0.00,,OVC003,0.00,VWS V14.01,2013-06-14 07:57:00,
2013-06-14 04:00:00,54.4,51.5,29.93,NE,51,2.0,0.0,90,0.00,,OVC003,0.00,VWS V14.01,2013-06-14 08:00:00,
2013-06-14 04:02:00,54.5,51.3,29.93,NE,51,2.0,0.0,89,0.00,,OVC003,0.00,VWS V14.01,2013-06-14 08:02:00,
2013-06-14 04:05:00,54.3,51.4,29.93,NE,51,2.0,0.0,90,0.00,,OVC003,0.00,VWS V14.01,2013-06-14 08:05:00,
2013-06-14 04:07:00,54.3,51.1,29.93,NE,51,2.0,0.0,89,0.00,,OVC003,0.00,VWS V14.01,2013-06-14 08:07:00,
2013-06-14 04:10:00,54.2,51.3,29.93,NE,51,2.0,0.0,90,0.00,,OVC003,0.00,VWS V14.01,2013-06-14 08:10:00,
2013-06-14 04:12:00,54.2,51.3,29.93,NE,51,2.0,0.0,90,0.00,,OVC003,0.00,VWS V14.01,2013-06-14 08:12:00,
2013-06-14 04:15:00,54.1,51.2,29.93,NE,51,2.0,0.0,90,0.00,,OVC003,0.00,VWS V14.01,2013-06-14 08:15:00,
2013-06-14 04:17:00,54.2,51.3,29.93,NE,51,2.0,0.0,90,0.00,,OVC003,0.00,VWS V14.01,2013-06-14 08:17:00,
2013-06-14 04:20:00,54.0,51.1,29.93,NE,51,2.0,0.0,90,0.00,,OVC003,0.00,VWS V14.01,2013-06-14 08:20:00,
2013-06-14 04:22:00,54.1,51.2,29.93,NE,51,2.0,0.0,90,0.00,,OVC003,0.00,VWS V14.01,2013-06-14 08:22:00,
2013-06-14 04:25:00,53.9,51.0,29.93,NE,51,2.0,0.0,90,0.00,,OVC003,0.00,VWS V14.01,2013-06-14 08:25:00,
2013-06-14 04:27:00,53.9,51.0,29.93,NE,51,2.0,0.0,90,0.00,,OVC003,0.00,VWS V14.01,2013-06-14 08:27:00,
2013-06-14 04:30:00,53.7,50.8,29.94,NE,51,2.0,0.0,90,0.00,,OVC003,0.00,VWS V14.01,2013-06-14 08:30:00,
2013-06-14 04:32:00,53.8,50.9,29.93,NE,51,2.0,0.0,90,0.00,,OVC003,0.00,VWS V14.01,2013-06-14 08:32:00,
2013-06-14 04:35:00,53.6,50.7,29.94,NE,51,2.0,0.0,90,0.00,,OVC003,0.00,VWS V14.01,2013-06-14 08:35:00,
2013-06-14 04:37:00,53.7,50.8,29.94,NE,51,2.0,0.0,90,0.00,,OVC003,0.00,VWS V14.01,2013-06-14 08:37:00,
2013-06-14 04:40:00,53.5,50.7,29.94,NE,51,2.0,0.0,90,0.00,,OVC003,0.00,VWS V14.01,2013-06-14 08:40:00,
2013-06-14 04:42:00,53.6,50.7,29.94,NE,51,2.0,0.0,90,0.00,,OVC003,0.00,VWS V14.01,2013-06-14 08:42:00,
2013-06-14 04:45:00,53.4,50.8,29.94,NE,51,2.0,0.0,91,0.00,,OVC003,0.00,VWS V14.01,2013-06-14 08:45:00,
2013-06-14 04:47:00,53.5,50.9,29.94,NE,51,2.0,0.0,91,0.00,,OVC003,0.00,VWS V14.01,2013-06-14 08:47:00,
2013-06-14 04:50:00,53.3,50.7,29.94,NE,51,2.0,0.0,91,0.00,,OVC003,0.00,VWS V14.01,2013-06-14 08:50:00,
2013-06-14 04:52:00,53.4,50.8,29.94,NE,51,2.0,0.0,91,0.00,,OVC003,0.00,VWS V14.01,2013-06-14 08:52:00,
2013-06-14 04:55:00,53.2,50.7,29.94,NE,51,2.0,0.0,91,0.00,,OVC003,0.00,VWS V14.01,2013-06-14 08:55:00,
2013-06-14 04:57:00,53.3,50.7,29.94,NE,51,2.0,0.0,91,0.00,,OVC003,0.00,VWS V14.01,2013-06-14 08:57:00,
2013-06-14 05:00:00,53.1,50.5,29.95,NE,51,2.0,0.0,91,0.00,,OVC003,0.00,VWS V14.01,2013-06-14 09:00:00,
2013-06-14 05:02:00,53.1,50.5,29.94,NE,51,2.0,0.0,91,0.00,,OVC003,0.00,VWS V14.01,2013-06-14 09:02:00,
2013-06-14 05:05:00,53.0,50.5,29.95,NE,51,2.0,0.0,91,0.00,,OVC003,0.00,VWS V14.01,2013-06-14 09:05:00,
2013-06-14 05:07:00,53.0,50.5,29.95,NE,51,2.0,0.0,91,0.00,,OVC003,0.00,VWS V14.01,2013-06-14 09:07:00,
2013-06-14 05:10:00,53.0,50.5,29.95,NE,51,2.0,0.0,91,0.00,,OVC003,0.00,VWS V14.01,2013-06-14 09:10:00,
2013-06-14 05:12:00,53.0,50.5,29.95,NE,51,2.0,0.0,91,0.00,,OVC003,0.00,VWS V14.01,2013-06-14 09:12:00,
2013-06-14 05:15:00,52.9,50.3,29.95,NE,51,2.0,0.0,91,0.00,,OVC003,0.00,VWS V14.01,2013-06-14 09:15:00,
2013-06-14 05:17:00,52.9,50.3,29.95,NE,51,2.0,0.0,91,0.00,,OVC003,0.00,VWS V14.01,2013-06-14 09:17:00,
2013-06-14 05:20:00,52.8,50.2,29.95,NE,51,2.0,0.0,91,0.00,,OVC003,0.00,VWS V14.01,2013-06-14 09:20:00,
2013-06-14 05:22:00,52.8,50.2,29.95,NE,51,2.0,0.0,91,0.00,,OVC003,0.00,VWS V14.01,2013-06-14 09:22:00,
2013-06-14 05:25:00,52.7,50.2,29.95,NE,51,2.0,0.0,91,0.00,,OVC003,0.00,VWS V14.01,2013-06-14 09:25:00,
2013-06-14 05:27:00,52.7,50.2,29.95,NE,51,2.0,0.0,91,0.00,,OVC003,0.00,VWS V14.01,2013-06-14 09:27:00,
2013-06-14 05:30:00,52.6,50.0,29.95,NE,51,2.0,0.0,91,0.00,,OVC003,0.00,VWS V14.01,2013-06-14 09:30:00,
2013-06-14 05:32:00,52.7,50.2,29.95,NE,51,2.0,0.0,91,0.00,,OVC003,0.00,VWS V14.01,2013-06-14 09:32:00,
2013-06-14 05:35:00,52.5,50.0,29.95,NE,51,2.0,0.0,91,0.00,,OVC003,0.00,VWS V14.01,2013-06-14 09:35:00,
2013-06-14 05:37:00,52.6,50.0,29.95,NE,51,2.0,0.0,91,0.00,,OVC003,0.00,VWS V14.01,2013-06-14 09:37:00,
2013-06-14 05:40:00,52.4,49.8,29.95,NE,51,2.0,0.0,91,0.00,,OVC003,0.00,VWS V14.01,2013-06-14 09:40:00,
2013-06-14 05:42:00,52.5,50.0,29.95,NE,51,2.0,0.0,91,0.00,,OVC003,0.00,VWS V14.01,2013-06-14 09:42:00,
2013-06-14 05:45:00,52.4,50.2,29.95,NE,51,2.0,0.0,92,0.00,,OVC003,0.00,VWS V14.01,2013-06-14 09:45:00,
2013-06-14 05:47:00,52.4,49.8,29.95,NE,51,2.0,0.0,91,0.00,,OVC003,0.00,VWS V14.01,2013-06-14 09:47:00,
2013-06-14 05:50:00,52.3,49.8,29.95,NE,51,2.0,2.0,91,0.00,,OVC003,0.00,VWS V14.01,2013-06-14 09:50:00,
2013-06-14 05:52:00,52.3,50.0,29.95,NE,51,2.0,2.0,92,0.00,,OVC003,0.00,VWS V14.01,2013-06-14 09:52:00,
2013-06-14 05:55:00,52.4,50.2,29.95,NE,51,2.0,0.0,92,0.00,,OVC003,0.00,VWS V14.01,2013-06-14 09:55:00,
2013-06-14 05:57:00,52.3,50.0,29.95,NE,51,2.0,0.0,92,0.00,,OVC003,0.00,VWS V14.01,2013-06-14 09:57:00,
2013-06-14 06:00:00,52.3,50.0,29.97,NE,51,2.0,0.0,92,0.00,,OVC003,0.00,VWS V14.01,2013-06-14 10:00:00,
2013-06-14 06:02:00,52.4,50.2,29.95,NE,51,2.0,0.0,92,0.00,,OVC003,0.00,VWS V14.01,2013-06-14 10:02:00,
2013-06-14 06:05:00,52.3,50.0,29.97,NE,51,2.0,0.0,92,0.00,,OVC003,0.00,VWS V14.01,2013-06-14 10:05:00,
2013-06-14 06:07:00,52.3,50.0,29.97,NE,51,2.0,0.0,92,0.00,,OVC003,0.00,VWS V14.01,2013-06-14 10:07:00,
2013-06-14 06:10:00,52.3,50.0,29.97,NE,51,2.0,0.0,92,0.00,,OVC003,0.00,VWS V14.01,2013-06-14 10:10:00,
2013-06-14 06:12:00,52.3,50.0,29.97,NE,51,2.0,0.0,92,0.00,,OVC003,0.00,VWS V14.01,2013-06-14 10:12:00,
2013-06-14 06:15:00,52.3,50.0,29.96,NE,51,2.0,0.0,92,0.00,,OVC003,0.00,VWS V14.01,2013-06-14 10:15:00,
2013-06-14 06:17:00,52.3,50.0,29.97,NE,51,2.0,0.0,92,0.00,,OVC003,0.00,VWS V14.01,2013-06-14 10:17:00,
2013-06-14 06:20:00,52.2,50.0,29.96,NE,51,2.0,0.0,92,0.00,,OVC003,0.00,VWS V14.01,2013-06-14 10:20:00,
2013-06-14 06:22:00,52.3,50.0,29.96,NE,51,2.0,0.0,92,0.00,,OVC003,0.00,VWS V14.01,2013-06-14 10:22:00,
2013-06-14 06:25:00,52.2,50.0,29.96,NE,51,2.0,0.0,92,0.00,,OVC003,0.00,VWS V14.01,2013-06-14 10:25:00,
2013-06-14 06:27:00,52.2,50.0,29.96,NE,51,2.0,0.0,92,0.00,,OVC003,0.00,VWS V14.01,2013-06-14 10:27:00,
2013-06-14 06:30:00,52.1,49.8,29.97,NE,51,2.0,0.0,92,0.00,,OVC003,0.00,VWS V14.01,2013-06-14 10:30:00,
2013-06-14 06:32:00,52.2,50.0,29.96,NE,51,2.0,0.0,92,0.00,,OVC003,0.00,VWS V14.01,2013-06-14 10:32:00,
2013-06-14 06:35:00,52.1,49.8,29.97,NE,51,2.0,0.0,92,0.00,,OVC003,0.00,VWS V14.01,2013-06-14 10:35:00,
2013-06-14 06:37:00,52.2,50.0,29.97,NE,51,2.0,0.0,92,0.00,,OVC003,0.00,VWS V14.01,2013-06-14 10:37:00,
2013-06-14 06:40:00,52.2,50.0,29.97,NE,51,2.0,2.0,92,0.00,,OVC003,0.00,VWS V14.01,2013-06-14 10:40:00,
2013-06-14 06:42:00,52.2,50.0,29.97,NE,51,2.0,0.0,92,0.00,,OVC003,0.00,VWS V14.01,2013-06-14 10:42:00,
2013-06-14 06:45:00,52.3,50.0,29.97,NE,51,2.0,0.0,92,0.00,,OVC003,0.00,VWS V14.01,2013-06-14 10:45:00,
2013-06-14 06:47:00,52.2,50.0,29.97,NE,51,2.0,0.0,92,0.00,,OVC003,0.00,VWS V14.01,2013-06-14 10:47:00,
2013-06-14 06:50:00,52.4,50.2,29.97,NE,51,2.0,0.0,92,0.00,,OVC003,0.00,VWS V14.01,2013-06-14 10:50:00,
2013-06-14 06:52:00,52.4,50.2,29.97,NE,51,2.0,0.0,92,0.00,,OVC003,0.00,VWS V14.01,2013-06-14 10:52:00,
2013-06-14 06:55:00,52.5,50.2,29.97,NE,51,2.0,0.0,92,0.00,,OVC003,0.00,VWS V14.01,2013-06-14 10:55:00,
2013-06-14 06:57:00,52.5,50.2,29.97,NE,51,2.0,0.0,92,0.00,,OVC003,0.00,VWS V14.01,2013-06-14 10:57:00,
2013-06-14 07:00:00,52.5,50.2,29.98,NE,51,2.0,0.0,92,0.00,,OVC003,0.00,VWS V14.01,2013-06-14 11:00:00,
2013-06-14 07:02:00,52.5,50.2,29.97,NE,51,2.0,0.0,92,0.00,,OVC003,0.00,VWS V14.01,2013-06-14 11:02:00,
2013-06-14 07:05:00,52.6,50.3,29.98,NE,51,2.0,0.0,92,0.00,,OVC003,0.00,VWS V14.01,2013-06-14 11:05:00,
2013-06-14 07:07:00,52.5,50.2,29.98,NE,51,2.0,0.0,92,0.00,,OVC003,0.00,VWS V14.01,2013-06-14 11:07:00,
2013-06-14 07:10:00,52.7,50.5,29.98,NE,51,2.0,0.0,92,0.00,,OVC003,0.00,VWS V14.01,2013-06-14 11:10:00,
2013-06-14 07:12:00,52.6,50.3,29.98,NE,51,2.0,0.0,92,0.00,,OVC003,0.00,VWS V14.01,2013-06-14 11:12:00,
2013-06-14 07:15:00,52.8,50.5,29.98,NE,51,2.0,0.0,92,0.00,,OVC003,0.00,VWS V14.01,2013-06-14 11:15:00,
2013-06-14 07:17:00,52.7,50.5,29.98,NE,51,2.0,0.0,92,0.00,,OVC003,0.00,VWS V14.01,2013-06-14 11:17:00,
2013-06-14 07:20:00,52.9,50.6,29.98,NE,51,2.0,0.0,92,0.00,,OVC003,0.00,VWS V14.01,2013-06-14 11:20:00,
2013-06-14 07:22:00,52.9,50.6,29.98,NE,51,2.0,0.0,92,0.00,,OVC003,0.00,VWS V14.01,2013-06-14 11:22:00,
2013-06-14 07:25:00,53.0,50.7,29.98,NE,51,2.0,2.0,92,0.00,,OVC003,0.00,VWS V14.01,2013-06-14 11:25:00,
2013-06-14 07:27:00,53.0,50.7,29.98,NE,51,2.0,0.0,92,0.00,,OVC003,0.00,VWS V14.01,2013-06-14 11:27:00,
2013-06-14 07:30:00,53.1,50.5,29.99,NE,51,2.0,0.0,91,0.00,,OVC003,0.00,VWS V14.01,2013-06-14 11:30:00,
2013-06-14 07:32:00,53.1,50.8,29.98,NE,51,2.0,0.0,92,0.00,,OVC003,0.00,VWS V14.01,2013-06-14 11:32:00,
2013-06-14 07:35:00,53.3,50.7,29.99,NE,51,2.0,0.0,91,0.00,,OVC003,0.00,VWS V14.01,2013-06-14 11:35:00,
2013-06-14 07:37:00,53.2,50.7,29.99,NE,51,2.0,0.0,91,0.00,,OVC003,0.00,VWS V14.01,2013-06-14 11:37:00,
2013-06-14 07:40:00,53.4,50.8,29.99,NE,51,2.0,2.0,91,0.00,,OVC003,0.00,VWS V14.01,2013-06-14 11:40:00,
2013-06-14 07:42:00,53.3,50.7,29.99,NE,51,2.0,0.0,91,0.00,,OVC003,0.00,VWS V14.01,2013-06-14 11:42:00,
2013-06-14 07:45:00,53.7,50.8,29.99,NE,51,2.0,2.0,90,0.00,,OVC003,0.00,VWS V14.01,2013-06-14 11:45:00,
2013-06-14 07:47:00,53.6,50.7,29.99,NE,51,2.0,2.0,90,0.00,,OVC003,0.00,VWS V14.01,2013-06-14 11:47:00,
2013-06-14 07:50:00,54.1,50.9,29.99,NE,51,2.0,0.0,89,0.00,,OVC003,0.00,VWS V14.01,2013-06-14 11:50:00,
2013-06-14 07:53:00,53.9,50.7,29.99,NE,51,2.0,0.0,89,0.00,,OVC003,0.00,VWS V14.01,2013-06-14 11:53:00,
2013-06-14 07:55:00,54.5,51.3,29.99,NE,51,2.0,2.0,89,0.00,,OVC003,0.00,VWS V14.01,2013-06-14 11:55:00,
2013-06-14 07:58:00,54.4,51.2,29.99,NE,51,2.0,0.0,89,0.00,,OVC003,0.00,VWS V14.01,2013-06-14 11:58:00,
2013-06-14 08:00:00,55.0,51.2,30.00,NE,51,2.0,2.0,87,0.00,,OVC003,0.00,VWS V14.01,2013-06-14 12:00:00,
2013-06-14 08:03:00,54.8,51.3,29.99,NE,51,2.0,2.0,88,0.00,,OVC003,0.00,VWS V14.01,2013-06-14 12:03:00,
2013-06-14 08:05:00,55.5,51.4,30.00,NE,51,2.0,2.0,86,0.00,,OVC003,0.00,VWS V14.01,2013-06-14 12:05:00,
2013-06-14 08:08:00,55.3,51.5,30.00,NE,51,2.0,0.0,87,0.00,,OVC003,0.00,VWS V14.01,2013-06-14 12:08:00,
2013-06-14 08:10:00,56.0,51.6,30.00,NE,51,2.0,2.0,85,0.00,,OVC003,0.00,VWS V14.01,2013-06-14 12:10:00,
2013-06-14 08:13:00,55.8,51.4,30.00,NE,51,2.0,2.0,85,0.00,,OVC003,0.00,VWS V14.01,2013-06-14 12:13:00,
2013-06-14 08:15:00,56.4,51.3,30.00,NE,40,2.0,3.0,83,0.00,,OVC003,0.00,VWS V14.01,2013-06-14 12:15:00,
2013-06-14 08:18:00,56.2,51.4,30.00,NE,40,3.0,3.0,84,0.00,,OVC003,0.00,VWS V14.01,2013-06-14 12:18:00,
2013-06-14 08:20:00,56.7,51.3,30.00,NE,40,2.0,0.0,82,0.00,,OVC003,0.00,VWS V14.01,2013-06-14 12:20:00,
2013-06-14 08:23:00,56.6,51.2,30.00,NE,40,2.0,0.0,82,0.00,,OVC003,0.00,VWS V14.01,2013-06-14 12:23:00,
2013-06-14 08:25:00,56.9,51.1,30.00,NE,40,2.0,2.0,81,0.00,,OVC003,0.00,VWS V14.01,2013-06-14 12:25:00,
2013-06-14 08:28:00,56.8,51.4,30.00,NE,40,2.0,2.0,82,0.00,,OVC003,0.00,VWS V14.01,2013-06-14 12:28:00,
2013-06-14 08:30:00,57.2,51.1,30.01,NE,40,2.0,2.0,80,0.00,,OVC003,0.00,VWS V14.01,2013-06-14 12:30:00,
2013-06-14 08:33:00,57.1,51.0,30.00,NE,40,2.0,2.0,80,0.00,,OVC003,0.00,VWS V14.01,2013-06-14 12:33:00,
2013-06-14 08:35:00,57.4,51.3,30.01,NE,39,3.0,3.0,80,0.00,,OVC003,0.00,VWS V14.01,2013-06-14 12:35:00,
2013-06-14 08:38:00,57.3,51.2,30.01,NE,40,2.0,0.0,80,0.00,,OVC003,0.00,VWS V14.01,2013-06-14 12:38:00,
2013-06-14 08:40:00,57.7,50.9,30.01,NE,39,2.0,2.0,78,0.00,,OVC003,0.00,VWS V14.01,2013-06-14 12:40:00,
2013-06-14 08:43:00,57.6,50.8,30.01,NE,39,2.0,2.0,78,0.00,,OVC003,0.00,VWS V14.01,2013-06-14 12:43:00,
2013-06-14 08:45:00,58.0,50.8,30.01,NE,39,2.0,0.0,77,0.00,,OVC003,0.00,VWS V14.01,2013-06-14 12:45:00,
2013-06-14 08:48:00,57.9,50.7,30.01,NE,39,2.0,0.0,77,0.00,,OVC003,0.00,VWS V14.01,2013-06-14 12:48:00,
2013-06-14 08:50:00,58.3,51.1,30.01,NE,39,2.0,2.0,77,0.00,,OVC003,0.00,VWS V14.01,2013-06-14 12:50:00,
2013-06-14 08:53:00,58.2,51.4,30.01,NE,39,3.0,3.0,78,0.00,,OVC003,0.00,VWS V14.01,2013-06-14 12:53:00,
2013-06-14 08:55:00,58.5,51.0,30.01,NE,39,2.0,2.0,76,0.00,,OVC003,0.00,VWS V14.01,2013-06-14 12:55:00,
2013-06-14 08:58:00,58.4,51.2,30.01,NE,39,2.0,2.0,77,0.00,,OVC003,0.00,VWS V14.01,2013-06-14 12:58:00,
2013-06-14 09:00:00,58.9,51.0,30.02,NE,39,2.0,2.0,75,0.00,,OVC003,0.00,VWS V14.01,2013-06-14 13:00:00,
2013-06-14 09:03:00,58.7,51.2,30.01,NE,39,2.0,2.0,76,0.00,,OVC003,0.00,VWS V14.01,2013-06-14 13:03:00,
2013-06-14 09:05:00,59.0,51.1,30.02,NE,39,2.0,0.0,75,0.00,,OVC003,0.00,VWS V14.01,2013-06-14 13:05:00,
2013-06-14 09:08:00,59.0,51.1,30.02,NE,39,2.0,0.0,75,0.00,,OVC003,0.00,VWS V14.01,2013-06-14 13:08:00,
2013-06-14 09:10:00,59.1,50.8,30.02,NE,39,3.0,3.0,74,0.00,,OVC003,0.00,VWS V14.01,2013-06-14 13:10:00,
2013-06-14 09:13:00,59.0,50.7,30.02,NE,39,3.0,3.0,74,0.00,,OVC003,0.00,VWS V14.01,2013-06-14 13:13:00,
2013-06-14 09:15:00,59.5,51.2,30.02,NE,39,2.0,2.0,74,0.00,,OVC003,0.00,VWS V14.01,2013-06-14 13:15:00,
2013-06-14 09:18:00,59.4,51.1,30.02,NE,39,2.0,2.0,74,0.00,,OVC003,0.00,VWS V14.01,2013-06-14 13:18:00,
2013-06-14 09:20:00,59.7,51.0,30.02,NE,39,2.0,0.0,73,0.00,,OVC003,0.00,VWS V14.01,2013-06-14 13:20:00,
2013-06-14 09:23:00,59.6,51.0,30.02,NE,39,2.0,0.0,73,0.00,,OVC003,0.00,VWS V14.01,2013-06-14 13:23:00,
2013-06-14 09:25:00,60.0,51.3,30.02,NNE,33,3.0,3.0,73,0.00,,OVC003,0.00,VWS V14.01,2013-06-14 13:25:00,
2013-06-14 09:28:00,59.9,51.2,30.02,NE,39,2.0,0.0,73,0.00,,OVC003,0.00,VWS V14.01,2013-06-14 13:28:00,
2013-06-14 09:30:00,60.3,50.5,30.03,NNE,28,2.0,2.0,70,0.00,,OVC003,0.00,VWS V14.01,2013-06-14 13:30:00,
2013-06-14 09:33:00,60.2,50.8,30.02,NNE,28,2.0,2.0,71,0.00,,OVC003,0.00,VWS V14.01,2013-06-14 13:33:00,
2013-06-14 09:35:00,60.4,50.6,30.03,NNE,28,2.0,0.0,70,0.00,,OVC003,0.00,VWS V14.01,2013-06-14 13:35:00,
2013-06-14 09:38:00,60.4,50.6,30.03,NNE,28,2.0,0.0,70,0.00,,OVC003,0.00,VWS V14.01,2013-06-14 13:38:00,
2013-06-14 09:40:00,60.6,50.8,30.03,NNE,28,2.0,2.0,70,0.00,,OVC003,0.00,VWS V14.01,2013-06-14 13:40:00,
2013-06-14 09:43:00,60.5,51.1,30.03,NNE,28,2.0,2.0,71,0.00,,OVC003,0.00,VWS V14.01,2013-06-14 13:43:00,
2013-06-14 09:45:00,60.9,51.1,30.03,NNE,28,2.0,2.0,70,0.00,,OVC003,0.00,VWS V14.01,2013-06-14 13:45:00,
2013-06-14 09:48:00,60.8,50.6,30.03,NNE,28,2.0,2.0,69,0.00,,OVC003,0.00,VWS V14.01,2013-06-14 13:48:00,
2013-06-14 09:50:00,61.1,50.9,30.03,NNE,28,2.0,2.0,69,0.00,,OVC003,0.00,VWS V14.01,2013-06-14 13:50:00,
2013-06-14 09:53:00,61.0,50.8,30.03,NNE,28,2.0,2.0,69,0.00,,OVC003,0.00,VWS V14.01,2013-06-14 13:53:00,
2013-06-14 09:55:00,61.2,50.6,30.03,NNE,28,3.0,3.0,68,0.00,,OVC003,0.00,VWS V14.01,2013-06-14 13:55:00,
2013-06-14 09:58:00,61.1,50.5,30.03,NNE,28,2.0,2.0,68,0.00,,OVC003,0.00,VWS V14.01,2013-06-14 13:58:00,
2013-06-14 10:00:00,61.5,51.2,30.03,NNE,28,2.0,2.0,69,0.00,,OVC003,0.00,VWS V14.01,2013-06-14 14:00:00,
2013-06-14 10:03:00,61.4,51.2,30.03,NNE,28,3.0,3.0,69,0.00,,OVC003,0.00,VWS V14.01,2013-06-14 14:03:00,
2013-06-14 10:05:00,61.9,51.2,30.03,NNE,28,2.0,2.0,68,0.00,,OVC003,0.00,VWS V14.01,2013-06-14 14:05:00,
2013-06-14 10:08:00,61.7,51.4,30.03,NNE,28,2.0,2.0,69,0.00,,OVC003,0.00,VWS V14.01,2013-06-14 14:08:00,
2013-06-14 10:10:00,62.2,51.1,30.03,NNE,28,2.0,2.0,67,0.00,,OVC003,0.00,VWS V14.01,2013-06-14 14:10:00,
2013-06-14 10:13:00,62.1,51.4,30.03,NNE,28,2.0,2.0,68,0.00,,OVC003,0.00,VWS V14.01,2013-06-14 14:13:00,
2013-06-14 10:15:00,62.3,51.6,30.04,West,273,3.0,3.0,68,0.00,,OVC003,0.00,VWS V14.01,2013-06-14 14:15:00,
2013-06-14 10:18:00,62.3,51.2,30.03,West,273,3.0,3.0,67,0.00,,OVC003,0.00,VWS V14.01,2013-06-14 14:18:00,
2013-06-14 10:20:00,62.5,51.8,30.04,NNW,339,5.0,5.0,68,0.00,,OVC003,0.00,VWS V14.01,2013-06-14 14:20:00,
2013-06-14 10:23:00,62.4,50.9,30.04,West,273,2.0,2.0,66,0.00,,OVC003,0.00,VWS V14.01,2013-06-14 14:23:00,
2013-06-14 10:25:00,62.4,50.5,30.04,NNW,341,2.0,3.0,65,0.00,,OVC003,0.00,VWS V14.01,2013-06-14 14:25:00,
2013-06-14 10:28:00,62.4,50.5,30.04,NNW,341,3.0,3.0,65,0.00,,OVC003,0.00,VWS V14.01,2013-06-14 14:28:00,
2013-06-14 10:30:00,62.5,50.6,30.04,NNW,341,2.0,2.0,65,0.00,,OVC003,0.00,VWS V14.01,2013-06-14 14:30:00,
2013-06-14 10:33:00,62.5,51.0,30.04,NNW,341,2.0,2.0,66,0.00,,OVC003,0.00,VWS V14.01,2013-06-14 14:33:00,
2013-06-14 10:35:00,62.7,51.2,30.04,NNW,341,2.0,2.0,66,0.00,,OVC003,0.00,VWS V14.01,2013-06-14 14:35:00,
2013-06-14 10:38:00,62.6,51.1,30.04,NNW,341,2.0,0.0,66,0.00,,OVC003,0.00,VWS V14.01,2013-06-14 14:38:00,
2013-06-14 10:40:00,62.9,51.4,30.04,NNW,341,2.0,2.0,66,0.00,,OVC003,0.00,VWS V14.01,2013-06-14 14:40:00,
2013-06-14 10:43:00,62.9,51.0,30.04,NNW,341,2.0,2.0,65,0.00,,OVC003,0.00,VWS V14.01,2013-06-14 14:43:00,
2013-06-14 10:45:00,63.2,52.1,30.04,NNW,341,3.0,3.0,67,0.00,,OVC003,0.00,VWS V14.01,2013-06-14 14:45:00,
2013-06-14 10:48:00,63.1,52.0,30.04,NNW,341,2.0,0.0,67,0.00,,OVC003,0.00,VWS V14.01,2013-06-14 14:48:00,
2013-06-14 10:50:00,63.4,51.4,30.04,NNW,341,2.0,2.0,65,0.00,,OVC003,0.00,VWS V14.01,2013-06-14 14:50:00,
2013-06-14 10:53:00,63.3,51.3,30.04,NNW,341,2.0,2.0,65,0.00,,OVC003,0.00,VWS V14.01,2013-06-14 14:53:00,
2013-06-14 10:55:00,63.4,51.0,30.04,NNW,341,2.0,2.0,64,0.00,,OVC003,0.00,VWS V14.01,2013-06-14 14:55:00,
2013-06-14 10:58:00,63.4,51.0,30.04,NNW,341,2.0,2.0,64,0.00,,OVC003,0.00,VWS V14.01,2013-06-14 14:58:00,
2013-06-14 11:00:00,63.6,51.2,30.04,NNW,341,2.0,2.0,64,0.00,,OVC003,0.00,VWS V14.01,2013-06-14 15:00:00,
2013-06-14 11:03:00,63.6,51.6,30.04,NNW,341,2.0,2.0,65,0.00,,OVC003,0.00,VWS V14.01,2013-06-14 15:03:00,
2013-06-14 11:05:00,63.7,51.7,30.04,NNW,341,2.0,2.0,65,0.00,,OVC003,0.00,VWS V14.01,2013-06-14 15:05:00,
2013-06-14 11:08:00,63.7,51.3,30.04,NNW,341,2.0,2.0,64,0.00,,OVC003,0.00,VWS V14.01,2013-06-14 15:08:00,
2013-06-14 11:10:00,63.8,51.0,30.04,NNW,327,2.0,2.0,63,0.00,,OVC003,0.00,VWS V14.01,2013-06-14 15:10:00,
2013-06-14 11:13:00,63.8,51.8,30.04,NNW,328,2.0,2.0,65,0.00,,OVC003,0.00,VWS V14.01,2013-06-14 15:13:00,
2013-06-14 11:15:00,64.0,51.6,30.04,NNW,328,2.0,2.0,64,0.00,,OVC003,0.00,VWS V14.01,2013-06-14 15:15:00,
2013-06-14 11:18:00,63.9,51.5,30.04,NNW,327,2.0,0.0,64,0.00,,OVC003,0.00,VWS V14.01,2013-06-14 15:18:00,
2013-06-14 11:20:00,64.3,51.5,30.04,NE,34,3.0,4.0,63,0.00,,OVC003,0.00,VWS V14.01,2013-06-14 15:20:00,
2013-06-14 11:24:00,64.2,51.4,30.04,NE,34,2.0,4.0,63,0.00,,OVC003,0.00,VWS V14.01,2013-06-14 15:24:00,
2013-06-14 11:25:00,64.5,52.1,30.04,NE,34,3.0,3.0,64,0.00,,OVC003,0.00,VWS V14.01,2013-06-14 15:25:00,
2013-06-14 11:29:00,64.5,52.1,30.04,NE,34,3.0,3.0,64,0.00,,OVC003,0.00,VWS V14.01,2013-06-14 15:29:00,
2013-06-14 11:30:00,64.8,51.9,30.04,NNE,33,2.0,2.0,63,0.00,,OVC003,0.00,VWS V14.01,2013-06-14 15:30:00,
2013-06-14 11:34:00,64.8,51.9,30.04,NE,34,2.0,2.0,63,0.00,,OVC003,0.00,VWS V14.01,2013-06-14 15:34:00,
2013-06-14 11:35:00,65.1,52.6,30.04,NNE,33,2.0,2.0,64,0.00,,OVC003,0.00,VWS V14.01,2013-06-14 15:35:00,
2013-06-14 11:39:00,65.0,53.0,30.04,NNE,33,2.0,2.0,65,0.00,,OVC003,0.00,VWS V14.01,2013-06-14 15:39:00,
2013-06-14 11:40:00,65.3,52.0,30.04,WSW,254,2.0,3.0,62,0.00,,OVC003,0.00,VWS V14.01,2013-06-14 15:40:00,
2013-06-14 11:44:00,65.2,52.3,30.04,WSW,253,3.0,3.0,63,0.00,,OVC003,0.00,VWS V14.01,2013-06-14 15:44:00,
2013-06-14 11:45:00,65.3,52.0,30.03,West,268,3.0,3.0,62,0.00,,OVC003,0.00,VWS V14.01,2013-06-14 15:45:00,
2013-06-14 11:49:00,65.3,52.0,30.04,WSW,254,2.0,2.0,62,0.00,,OVC003,0.00,VWS V14.01,2013-06-14 15:49:00,
2013-06-14 11:50:00,65.6,52.7,30.03,NE,44,2.0,3.0,63,0.00,,OVC003,0.00,VWS V14.01,2013-06-14 15:50:00,
2013-06-14 11:54:00,65.6,52.2,30.03,NE,45,3.0,3.0,62,0.00,,OVC003,0.00,VWS V14.01,2013-06-14 15:54:00,
2013-06-14 11:55:00,65.9,52.5,30.03,WNW,294,2.0,2.0,62,0.00,,OVC003,0.00,VWS V14.01,2013-06-14 15:55:00,
2013-06-14 11:59:00,65.9,52.5,30.03,WNW,294,2.0,2.0,62,0.00,,OVC003,0.00,VWS V14.01,2013-06-14 15:59:00,
2013-06-14 12:00:00,66.1,52.7,30.03,West,279,2.0,4.0,62,0.00,,OVC003,0.00,VWS V14.01,2013-06-14 16:00:00,
2013-06-14 12:04:00,66.1,52.3,30.03,West,279,3.0,4.0,61,0.00,,OVC003,0.00,VWS V14.01,2013-06-14 16:04:00,
2013-06-14 12:05:00,66.5,52.7,30.03,NW,305,2.0,2.0,61,0.00,,OVC003,0.00,VWS V14.01,2013-06-14 16:05:00,
2013-06-14 12:09:00,66.4,52.6,30.03,NW,305,2.0,2.0,61,0.00,,OVC003,0.00,VWS V14.01,2013-06-14 16:09:00,
2013-06-14 12:10:00,66.7,53.3,30.03,NW,308,2.0,2.0,62,0.00,,OVC003,0.00,VWS V14.01,2013-06-14 16:10:00,
2013-06-14 12:14:00,66.7,53.3,30.03,NW,308,2.0,2.0,62,0.00,,OVC003,0.00,VWS V14.01,2013-06-14 16:14:00,
2013-06-14 12:15:00,66.9,53.5,30.03,West,259,2.0,3.0,62,0.00,,OVC003,0.00,VWS V14.01,2013-06-14 16:15:00,
2013-06-14 12:19:00,66.9,53.5,30.03,West,259,2.0,3.0,62,0.00,,OVC003,0.00,VWS V14.01,2013-06-14 16:19:00,
2013-06-14 12:20:00,66.9,52.6,30.03,West,259,2.0,2.0,60,0.00,,OVC003,0.00,VWS V14.01,2013-06-14 16:20:00,
2013-06-14 12:24:00,67.0,52.7,30.03,West,259,2.0,2.0,60,0.00,,OVC003,0.00,VWS V14.01,2013-06-14 16:24:00,
2013-06-14 12:25:00,67.0,53.1,30.03,West,259,2.0,2.0,61,0.00,,OVC003,0.00,VWS V14.01,2013-06-14 16:25:00,
2013-06-14 12:29:00,67.0,53.1,30.03,West,259,2.0,2.0,61,0.00,,OVC003,0.00,VWS V14.01,2013-06-14 16:29:00,
2013-06-14 12:30:00,67.3,53.0,30.03,West,268,2.0,2.0,60,0.00,,OVC003,0.00,VWS V14.01,2013-06-14 16:30:00,
2013-06-14 12:34:00,67.2,52.9,30.03,West,268,2.0,2.0,60,0.00,,OVC003,0.00,VWS V14.01,2013-06-14 16:34:00,
2013-06-14 12:35:00,67.5,53.6,30.03,West,268,2.0,2.0,61,0.00,,OVC003,0.00,VWS V14.01,2013-06-14 16:35:00,
2013-06-14 12:39:00,67.4,53.0,30.03,West,268,2.0,2.0,60,0.00,,OVC003,0.00,VWS V14.01,2013-06-14 16:39:00,
2013-06-14 12:40:00,67.9,53.5,30.03,West,267,2.0,2.0,60,0.00,,OVC003,0.00,VWS V14.01,2013-06-14 16:40:00,
2013-06-14 12:44:00,67.8,53.9,30.03,West,268,2.0,2.0,61,0.00,,OVC003,0.00,VWS V14.01,2013-06-14 16:44:00,
2013-06-14 12:45:00,68.2,53.3,30.02,West,267,3.0,3.0,59,0.00,,OVC003,0.00,VWS V14.01,2013-06-14 16:45:00,
2013-06-14 12:49:00,68.1,53.2,30.02,West,268,2.0,2.0,59,0.00,,OVC003,0.00,VWS V14.01,2013-06-14 16:49:00,
2013-06-14 12:50:00,68.5,52.7,30.02,West,267,2.0,3.0,57,0.00,,OVC003,0.00,VWS V14.01,2013-06-14 16:50:00,
2013-06-14 12:54:00,68.5,52.7,30.02,West,267,2.0,3.0,57,0.00,,OVC003,0.00,VWS V14.01,2013-06-14 16:54:00,
2013-06-14 12:55:00,68.6,53.2,30.02,West,267,2.0,2.0,58,0.00,,OVC003,0.00,VWS V14.01,2013-06-14 16:55:00,
2013-06-14 12:59:00,68.6,53.2,30.02,West,267,2.0,2.0,58,0.00,,OVC003,0.00,VWS V14.01,2013-06-14 16:59:00,
2013-06-14 13:00:00,68.8,53.4,30.01,West,267,2.0,0.0,58,0.00,,OVC003,0.00,VWS V14.01,2013-06-14 17:00:00,
2013-06-14 13:04:00,68.8,53.4,30.01,West,267,2.0,0.0,58,0.00,,OVC003,0.00,VWS V14.01,2013-06-14 17:04:00,
2013-06-14 13:05:00,69.0,51.7,30.01,NNE,25,3.0,3.0,54,0.00,,OVC003,0.00,VWS V14.01,2013-06-14 17:05:00,
2013-06-14 13:09:00,69.0,51.7,30.01,NNE,25,2.0,2.0,54,0.00,,OVC003,0.00,VWS V14.01,2013-06-14 17:09:00,
2013-06-14 13:10:00,69.2,51.4,30.01,NNE,27,2.0,2.0,53,0.00,,OVC003,0.00,VWS V14.01,2013-06-14 17:10:00,
2013-06-14 13:14:00,69.2,50.8,30.01,NNE,27,2.0,2.0,52,0.00,,OVC003,0.00,VWS V14.01,2013-06-14 17:14:00,
2013-06-14 13:15:00,69.6,52.7,30.02,NNE,26,2.0,2.0,55,0.00,,OVC003,0.00,VWS V14.01,2013-06-14 17:15:00,
2013-06-14 13:19:00,69.5,52.6,30.02,NNE,26,2.0,2.0,55,0.00,,OVC003,0.00,VWS V14.01,2013-06-14 17:19:00,
2013-06-14 13:20:00,69.8,51.4,30.02,NNE,33,2.0,3.0,52,0.00,,OVC003,0.00,VWS V14.01,2013-06-14 17:20:00,
2013-06-14 13:24:00,69.8,51.4,30.02,NNE,33,2.0,3.0,52,0.00,,OVC003,0.00,VWS V14.01,2013-06-14 17:24:00,
2013-06-14 13:25:00,69.9,52.5,30.02,NNE,33,3.0,3.0,54,0.00,,OVC003,0.00,VWS V14.01,2013-06-14 17:25:00,
2013-06-14 13:29:00,69.9,52.0,30.02,NNE,33,2.0,2.0,53,0.00,,OVC003,0.00,VWS V14.01,2013-06-14 17:29:00,
2013-06-14 13:30:00,70.1,53.2,30.01,South,170,3.0,4.0,55,0.00,,OVC003,0.00,VWS V14.01,2013-06-14 17:30:00,
2013-06-14 13:34:00,70.1,52.2,30.01,South,170,2.0,4.0,53,0.00,,OVC003,0.00,VWS V14.01,2013-06-14 17:34:00,
2013-06-14 13:35:00,70.3,53.9,30.01,South,170,3.0,3.0,56,0.00,,OVC003,0.00,VWS V14.01,2013-06-14 17:35:00,
2013-06-14 13:39:00,70.2,52.8,30.01,South,170,2.0,3.0,54,0.00,,OVC003,0.00,VWS V14.01,2013-06-14 17:39:00,
2013-06-14 13:40:00,70.5,52.6,30.01,ENE,75,3.0,3.0,53,0.00,,OVC003,0.00,VWS V14.01,2013-06-14 17:40:00,
2013-06-14 13:44:00,70.5,52.6,30.01,ENE,75,2.0,2.0,53,0.00,,OVC003,0.00,VWS V14.01,2013-06-14 17:44:00,
2013-06-14 13:45:00,70.7,52.8,30.01,ENE,75,2.0,2.0,53,0.00,,OVC003,0.00,VWS V14.01,2013-06-14 17:45:00,
2013-06-14 13:49:00,70.7,52.8,30.01,ENE,75,2.0,2.0,53,0.00,,OVC003,0.00,VWS V14.01,2013-06-14 17:49:00,
2013-06-14 13:50:00,71.1,52.1,30.01,NNE,16,3.0,3.0,51,0.00,,OVC003,0.00,VWS V14.01,2013-06-14 17:50:00,
2013-06-14 13:54:00,71.0,52.5,30.01,NNE,16,5.0,5.0,52,0.00,,OVC003,0.00,VWS V14.01,2013-06-14 17:54:00,
2013-06-14 13:55:00,71.3,52.3,30.01,West,271,2.0,4.0,51,0.00,,OVC003,0.00,VWS V14.01,2013-06-14 17:55:00,
2013-06-14 13:59:00,71.3,52.8,30.01,West,271,2.0,4.0,52,0.00,,OVC003,0.00,VWS V14.01,2013-06-14 17:59:00,
2013-06-14 14:00:00,71.3,50.6,30.00,NW,326,2.0,3.0,48,0.00,,OVC003,0.00,VWS V14.01,2013-06-14 18:00:00,
2013-06-14 14:04:00,71.4,51.3,30.00,NW,326,4.0,4.0,49,0.00,,OVC003,0.00,VWS V14.01,2013-06-14 18:04:00,
2013-06-14 14:05:00,71.4,51.3,30.00,NNW,327,2.0,2.0,49,0.00,,OVC003,0.00,VWS V14.01,2013-06-14 18:05:00,
2013-06-14 14:09:00,71.4,51.3,30.00,NNW,327,2.0,2.0,49,0.00,,OVC003,0.00,VWS V14.01,2013-06-14 18:09:00,
2013-06-14 14:10:00,71.6,51.5,30.00,SSW,206,3.0,3.0,49,0.00,,OVC003,0.00,VWS V14.01,2013-06-14 18:10:00,
2013-06-14 14:14:00,71.6,50.9,30.00,NW,307,2.0,2.0,48,0.00,,OVC003,0.00,VWS V14.01,2013-06-14 18:14:00,
2013-06-14 14:15:00,71.8,52.2,30.00,SW,222,4.0,4.0,50,0.00,,OVC003,0.00,VWS V14.01,2013-06-14 18:15:00,
2013-06-14 14:19:00,71.7,52.1,30.00,SSW,203,2.0,2.0,50,0.00,,OVC003,0.00,VWS V14.01,2013-06-14 18:19:00,
2013-06-14 14:20:00,71.9,50.6,30.00,NE,41,3.0,3.0,47,0.00,,OVC003,0.00,VWS V14.01,2013-06-14 18:20:00,
2013-06-14 14:24:00,71.9,50.6,30.00,NE,41,3.0,3.0,47,0.00,,OVC003,0.00,VWS V14.01,2013-06-14 18:24:00,
2013-06-14 14:25:00,72.1,49.6,30.00,West,263,2.0,2.0,45,0.00,,OVC003,0.00,VWS V14.01,2013-06-14 18:25:00,
2013-06-14 14:29:00,72.1,49.0,30.00,West,263,2.0,2.0,44,0.00,,OVC003,0.00,VWS V14.01,2013-06-14 18:29:00,
2013-06-14 14:30:00,72.4,48.7,30.00,NNE,28,4.0,4.0,43,0.00,,OVC003,0.00,VWS V14.01,2013-06-14 18:30:00,
2013-06-14 14:34:00,72.4,48.0,30.00,NNE,28,2.0,3.0,42,0.00,,OVC003,0.00,VWS V14.01,2013-06-14 18:34:00,
2013-06-14 14:35:00,72.5,48.1,30.00,NNE,28,2.0,4.0,42,0.00,,OVC003,0.00,VWS V14.01,2013-06-14 18:35:00,
2013-06-14 14:39:00,72.5,48.1,30.00,NNE,28,2.0,4.0,42,0.00,,OVC003,0.00,VWS V14.01,2013-06-14 18:39:00,
2013-06-14 14:40:00,72.7,47.0,30.00,NNE,28,3.0,3.0,40,0.00,,OVC003,0.00,VWS V14.01,2013-06-14 18:40:00,
2013-06-14 14:44:00,72.7,47.7,30.00,NNE,28,2.0,2.0,41,0.00,,OVC003,0.00,VWS V14.01,2013-06-14 18:44:00,
2013-06-14 14:45:00,72.9,45.8,29.99,NNE,28,3.0,3.0,38,0.00,,OVC003,0.00,VWS V14.01,2013-06-14 18:45:00,
2013-06-14 14:49:00,72.9,45.8,29.99,NNE,28,2.0,2.0,38,0.00,,OVC003,0.00,VWS V14.01,2013-06-14 18:49:00,
2013-06-14 14:50:00,73.1,47.4,29.99,NNE,28,2.0,2.0,40,0.00,,OVC003,0.00,VWS V14.01,2013-06-14 18:50:00,
2013-06-14 14:54:00,73.1,47.4,29.99,NNE,28,2.0,2.0,40,0.00,,OVC003,0.00,VWS V14.01,2013-06-14 18:54:00,
2013-06-14 14:55:00,73.3,47.5,29.99,NE,45,3.0,3.0,40,0.00,,OVC003,0.00,VWS V14.01,2013-06-14 18:55:00,
2013-06-14 14:59:00,73.3,47.5,29.99,NE,45,2.0,3.0,40,0.00,,OVC003,0.00,VWS V14.01,2013-06-14 18:59:00,
2013-06-14 15:00:00,73.3,44.8,29.98,NE,47,2.0,3.0,36,0.00,,OVC003,0.00,VWS V14.01,2013-06-14 19:00:00,
2013-06-14 15:04:00,73.3,44.8,29.98,NE,47,2.0,3.0,36,0.00,,OVC003,0.00,VWS V14.01,2013-06-14 19:04:00,
2013-06-14 15:05:00,73.5,47.0,29.98,NE,47,2.0,2.0,39,0.00,,OVC003,0.00,VWS V14.01,2013-06-14 19:05:00,
2013-06-14 15:09:00,73.4,47.6,29.98,NE,47,3.0,3.0,40,0.00,,OVC003,0.00,VWS V14.01,2013-06-14 19:09:00,
2013-06-14 15:10:00,73.4,46.3,29.98,NE,47,2.0,2.0,38,0.00,,OVC003,0.00,VWS V14.01,2013-06-14 19:10:00,
2013-06-14 15:14:00,73.5,46.4,29.98,NE,47,3.0,3.0,38,0.00,,OVC003,0.00,VWS V14.01,2013-06-14 19:14:00,
2013-06-14 15:15:00,73.4,47.6,29.98,NE,47,3.0,3.0,40,0.00,,OVC003,0.00,VWS V14.01,2013-06-14 19:15:00,
2013-06-14 15:19:00,73.4,47.6,29.98,NE,47,2.0,0.0,40,0.00,,OVC003,0.00,VWS V14.01,2013-06-14 19:19:00,
2013-06-14 15:20:00,73.7,47.9,29.98,NE,47,2.0,4.0,40,0.00,,OVC003,0.00,VWS V14.01,2013-06-14 19:20:00,
2013-06-14 15:24:00,73.7,47.9,29.98,NE,47,2.0,4.0,40,0.00,,OVC003,0.00,VWS V14.01,2013-06-14 19:24:00,
2013-06-14 15:25:00,73.9,48.7,29.98,NE,47,3.0,3.0,41,0.00,,OVC003,0.00,VWS V14.01,2013-06-14 19:25:00,
2013-06-14 15:30:00,73.9,48.7,29.98,NE,47,2.0,2.0,41,0.00,,OVC003,0.00,VWS V14.01,2013-06-14 19:30:00,
2013-06-14 15:35:00,74.2,48.3,29.98,NE,47,2.0,2.0,40,0.00,,OVC003,0.00,VWS V14.01,2013-06-14 19:35:00,
2013-06-14 15:40:00,74.5,46.5,29.98,West,261,3.0,3.0,37,0.00,,OVC003,0.00,VWS V14.01,2013-06-14 19:40:00,
2013-06-14 15:45:00,74.4,47.2,29.98,West,277,2.0,3.0,38,0.00,,OVC003,0.00,VWS V14.01,2013-06-14 19:45:00,
2013-06-14 15:50:00,74.8,49.5,29.98,West,276,2.0,2.0,41,0.00,,OVC003,0.00,VWS V14.01,2013-06-14 19:50:00,
2013-06-14 15:55:00,75.1,47.8,29.98,West,277,2.0,2.0,38,0.00,,OVC003,0.00,VWS V14.01,2013-06-14 19:55:00,
2013-06-14 16:00:00,75.3,48.7,29.98,NE,38,3.0,3.0,39,0.00,,OVC003,0.00,VWS V14.01,2013-06-14 20:00:00,
2013-06-14 16:05:00,75.5,48.8,29.98,NE,37,2.0,2.0,39,0.00,,OVC003,0.00,VWS V14.01,2013-06-14 20:05:00,
2013-06-14 16:10:00,75.9,49.2,29.98,NNE,18,2.0,2.0,39,0.00,,OVC003,0.00,VWS V14.01,2013-06-14 20:10:00,
2013-06-14 16:15:00,75.6,47.5,29.98,NNE,31,2.0,4.0,37,0.00,,OVC003,0.00,VWS V14.01,2013-06-14 20:15:00,
2013-06-14 16:20:00,75.7,51.6,29.97,NNE,29,2.0,2.0,43,0.00,,OVC003,0.00,VWS V14.01,2013-06-14 20:20:00,
2013-06-14 16:25:00,76.2,50.1,29.97,NW,317,2.0,2.0,40,0.00,,OVC003,0.00,VWS V14.01,2013-06-14 20:25:00,
2013-06-14 16:30:00,76.8,51.3,29.97,NW,317,2.0,0.0,41,0.00,,OVC003,0.00,VWS V14.01,2013-06-14 20:30:00,
2013-06-14 16:35:00,77.0,48.8,29.97,NNW,330,2.0,2.0,37,0.00,,OVC003,0.00,VWS V14.01,2013-06-14 20:35:00,
2013-06-14 16:40:00,76.9,50.1,29.97,NNW,330,2.0,0.0,39,0.00,,OVC003,0.00,VWS V14.01,2013-06-14 20:40:00,
2013-06-14 16:45:00,77.1,50.9,29.97,NNW,330,3.0,3.0,40,0.00,,OVC003,0.00,VWS V14.01,2013-06-14 20:45:00,
2013-06-14 16:50:00,77.2,51.0,29.97,NNW,330,3.0,3.0,40,0.00,,OVC003,0.00,VWS V14.01,2013-06-14 20:50:00,
2013-06-14 16:55:00,77.2,49.7,29.97,NNW,330,2.0,0.0,38,0.00,,OVC003,0.00,VWS V14.01,2013-06-14 20:55:00,
2013-06-14 17:00:00,77.4,51.9,29.97,NNW,330,2.0,0.0,41,0.00,,OVC003,0.00,VWS V14.01,2013-06-14 21:00:00,
2013-06-14 17:05:00,77.8,48.7,29.97,NW,307,2.0,0.0,36,0.00,,OVC003,0.00,VWS V14.01,2013-06-14 21:05:00,
2013-06-14 17:10:00,77.6,48.6,29.97,North,358,3.0,3.0,36,0.00,,OVC003,0.00,VWS V14.01,2013-06-14 21:10:00,
2013-06-14 17:15:00,77.5,49.9,29.97,WNW,283,2.0,0.0,38,0.00,,OVC003,0.00,VWS V14.01,2013-06-14 21:15:00,
2013-06-14 17:20:00,77.5,49.2,29.96,WNW,283,2.0,2.0,37,0.00,,OVC003,0.00,VWS V14.01,2013-06-14 21:20:00,
2013-06-14 17:25:00,77.2,47.5,29.96,WNW,284,3.0,3.0,35,0.00,,OVC003,0.00,VWS V14.01,2013-06-14 21:25:00,
2013-06-14 17:30:00,76.9,47.9,29.96,SW,226,2.0,0.0,36,0.00,,OVC003,0.00,VWS V14.01,2013-06-14 21:30:00,
2013-06-14 17:35:00,77.9,49.6,29.96,SW,226,2.0,0.0,37,0.00,,OVC003,0.00,VWS V14.01,2013-06-14 21:35:00,
2013-06-14 17:40:00,77.9,50.3,29.96,SW,226,3.0,3.0,38,0.00,,OVC003,0.00,VWS V14.01,2013-06-14 21:40:00,
2013-06-14 17:45:00,77.3,46.8,29.96,SW,225,2.0,0.0,34,0.00,,OVC003,0.00,VWS V14.01,2013-06-14 21:45:00,
2013-06-14 17:50:00,77.0,46.5,29.97,SW,225,2.0,0.0,34,0.00,,OVC003,0.00,VWS V14.01,2013-06-14 21:50:00,
2013-06-14 17:55:00,77.5,48.5,29.97,SW,226,3.0,3.0,36,0.00,,OVC003,0.00,VWS V14.01,2013-06-14 21:55:00,
2013-06-14 18:00:00,77.6,47.0,29.97,SW,225,2.0,0.0,34,0.00,,OVC003,0.00,VWS V14.01,2013-06-14 22:00:00,
2013-06-14 18:05:00,78.5,48.6,29.96,SW,226,2.0,0.0,35,0.00,,OVC003,0.00,VWS V14.01,2013-06-14 22:05:00,
2013-06-14 18:10:00,78.7,47.2,29.96,SW,226,2.0,0.0,33,0.00,,OVC003,0.00,VWS V14.01,2013-06-14 22:10:00,
2013-06-14 18:15:00,78.4,50.7,29.96,SW,226,3.0,3.0,38,0.00,,OVC003,0.00,VWS V14.01,2013-06-14 22:15:00,
2013-06-14 18:20:00,77.9,53.6,29.96,SW,226,2.0,0.0,43,0.00,,OVC003,0.00,VWS V14.01,2013-06-14 22:20:00,
2013-06-14 18:25:00,77.4,54.4,29.96,SW,225,2.0,0.0,45,0.00,,OVC003,0.00,VWS V14.01,2013-06-14 22:25:00,
2013-06-14 18:30:00,77.1,55.9,29.96,SW,226,2.0,0.0,48,0.00,,OVC003,0.00,VWS V14.01,2013-06-14 22:30:00,
2013-06-14 18:35:00,76.9,55.7,29.95,SW,226,2.0,2.0,48,0.00,,OVC003,0.00,VWS V14.01,2013-06-14 22:35:00,
2013-06-14 18:40:00,76.4,54.7,29.95,SW,225,2.0,0.0,47,0.00,,OVC003,0.00,VWS V14.01,2013-06-14 22:40:00,
2013-06-14 18:45:00,76.4,55.8,29.95,SW,225,2.0,0.0,49,0.00,,OVC003,0.00,VWS V14.01,2013-06-14 22:45:00,
2013-06-14 18:50:00,76.4,54.7,29.96,SW,225,2.0,0.0,47,0.00,,OVC003,0.00,VWS V14.01,2013-06-14 22:50:00,
2013-06-14 18:55:00,76.1,56.1,29.96,SW,226,2.0,0.0,50,0.00,,OVC003,0.00,VWS V14.01,2013-06-14 22:55:00,
2013-06-14 19:00:00,75.8,55.9,29.96,SW,226,2.0,0.0,50,0.00,,OVC003,0.00,VWS V14.01,2013-06-14 23:00:00,
2013-06-14 19:05:00,75.3,54.8,29.95,SW,225,2.0,0.0,49,0.00,,OVC003,0.00,VWS V14.01,2013-06-14 23:05:00,
2013-06-14 19:10:00,75.0,55.7,29.95,SW,226,2.0,0.0,51,0.00,,OVC003,0.00,VWS V14.01,2013-06-14 23:10:00,
2013-06-14 19:15:00,74.8,56.5,29.95,SW,226,2.0,0.0,53,0.00,,OVC003,0.00,VWS V14.01,2013-06-14 23:15:00,
2013-06-14 19:20:00,74.5,56.8,29.95,SW,226,2.0,0.0,54,0.00,,OVC003,0.00,VWS V14.01,2013-06-14 23:20:00,
2013-06-14 19:25:00,74.0,54.7,29.95,SW,226,2.0,0.0,51,0.00,,OVC003,0.00,VWS V14.01,2013-06-14 23:25:00,
2013-06-14 19:30:00,73.4,55.2,29.95,SW,226,2.0,0.0,53,0.00,,OVC003,0.00,VWS V14.01,2013-06-14 23:30:00,
2013-06-14 19:35:00,72.7,55.6,29.95,SW,225,2.0,0.0,55,0.00,,OVC003,0.00,VWS V14.01,2013-06-14 23:35:00,
2013-06-14 19:36:00,73.0,54.9,29.95,SW,225,2.0,0.0,53,0.00,,OVC003,0.00,VWS V14.01,2013-06-14 23:36:00,
2013-06-14 19:40:00,72.3,55.2,29.95,SW,226,2.0,0.0,55,0.00,,OVC003,0.00,VWS V14.01,2013-06-14 23:40:00,
2013-06-14 19:41:00,72.7,55.6,29.95,SW,226,2.0,0.0,55,0.00,,OVC003,0.00,VWS V14.01,2013-06-14 23:41:00,
2013-06-14 19:45:00,72.1,55.6,29.95,SW,225,2.0,0.0,56,0.00,,OVC003,0.00,VWS V14.01,2013-06-14 23:45:00,
2013-06-14 19:46:00,72.3,55.7,29.95,SW,226,2.0,0.0,56,0.00,,OVC003,0.00,VWS V14.01,2013-06-14 23:46:00,
2013-06-14 19:50:00,71.7,55.2,29.95,SW,225,2.0,2.0,56,0.00,,OVC003,0.00,VWS V14.01,2013-06-14 23:50:00,
2013-06-14 19:51:00,72.0,55.5,29.95,SW,225,2.0,0.0,56,0.00,,OVC003,0.00,VWS V14.01,2013-06-14 23:51:00,
2013-06-14 19:55:00,71.4,55.4,29.95,SW,226,2.0,0.0,57,0.00,,OVC003,0.00,VWS V14.01,2013-06-14 23:55:00,
2013-06-14 19:56:00,71.6,55.6,29.95,SW,226,2.0,0.0,57,0.00,,OVC003,0.00,VWS V14.01,2013-06-14 23:56:00,
2013-06-14 20:00:00,71.3,55.8,29.95,SW,226,2.0,0.0,58,0.00,,OVC003,0.00,VWS V14.01,2013-06-15 00:00:00,
2013-06-14 20:01:00,71.3,55.3,29.95,SW,226,2.0,0.0,57,0.00,,OVC003,0.00,VWS V14.01,2013-06-15 00:01:00,
2013-06-14 20:05:00,71.1,56.1,29.95,SW,225,2.0,0.0,59,0.00,,OVC003,0.00,VWS V14.01,2013-06-15 00:05:00,
2013-06-14 20:06:00,71.2,55.7,29.95,SW,226,2.0,0.0,58,0.00,,OVC003,0.00,VWS V14.01,2013-06-15 00:06:00,
2013-06-14 20:10:00,70.9,55.9,29.95,SW,226,2.0,0.0,59,0.00,,OVC003,0.00,VWS V14.01,2013-06-15 00:10:00,
2013-06-14 20:11:00,71.1,56.1,29.95,SW,226,2.0,0.0,59,0.00,,OVC003,0.00,VWS V14.01,2013-06-15 00:11:00,
2013-06-14 20:15:00,70.6,56.1,29.95,SW,226,2.0,0.0,60,0.00,,OVC003,0.00,VWS V14.01,2013-06-15 00:15:00,
2013-06-14 20:16:00,70.9,55.9,29.95,SW,226,2.0,0.0,59,0.00,,OVC003,0.00,VWS V14.01,2013-06-15 00:16:00,
2013-06-14 20:20:00,70.3,56.2,29.95,SW,226,2.0,0.0,61,0.00,,OVC003,0.00,VWS V14.01,2013-06-15 00:20:00,
2013-06-14 20:21:00,70.6,56.1,29.95,SW,226,2.0,0.0,60,0.00,,OVC003,0.00,VWS V14.01,2013-06-15 00:21:00,
2013-06-14 20:25:00,69.9,56.3,29.95,SW,226,2.0,0.0,62,0.00,,OVC003,0.00,VWS V14.01,2013-06-15 00:25:00,
2013-06-14 20:26:00,70.2,56.1,29.95,SW,226,2.0,0.0,61,0.00,,OVC003,0.00,VWS V14.01,2013-06-15 00:26:00,
2013-06-14 20:30:00,69.6,56.0,29.95,SW,226,2.0,0.0,62,0.00,,OVC003,0.00,VWS V14.01,2013-06-15 00:30:00,
2013-06-14 20:31:00,69.8,56.2,29.95,SW,226,2.0,0.0,62,0.00,,OVC003,0.00,VWS V14.01,2013-06-15 00:31:00,
2013-06-14 20:35:00,69.4,55.8,29.95,SW,226,2.0,0.0,62,0.00,,OVC003,0.00,VWS V14.01,2013-06-15 00:35:00,
2013-06-14 20:36:00,69.5,55.9,29.95,SW,226,2.0,0.0,62,0.00,,OVC003,0.00,VWS V14.01,2013-06-15 00:36:00,
2013-06-14 20:40:00,69.1,56.0,29.95,SW,226,2.0,0.0,63,0.00,,OVC003,0.00,VWS V14.01,2013-06-15 00:40:00,
2013-06-14 20:41:00,69.3,55.7,29.95,SW,226,2.0,0.0,62,0.00,,OVC003,0.00,VWS V14.01,2013-06-15 00:41:00,
2013-06-14 20:45:00,68.7,55.6,29.95,SW,226,2.0,0.0,63,0.00,,OVC003,0.00,VWS V14.01,2013-06-15 00:45:00,
2013-06-14 20:46:00,69.0,55.9,29.95,SW,225,2.0,0.0,63,0.00,,OVC003,0.00,VWS V14.01,2013-06-15 00:46:00,
2013-06-14 20:50:00,68.5,55.9,29.95,SW,226,2.0,0.0,64,0.00,,OVC003,0.00,VWS V14.01,2013-06-15 00:50:00,
2013-06-14 20:51:00,68.7,55.6,29.95,SW,226,2.0,0.0,63,0.00,,OVC003,0.00,VWS V14.01,2013-06-15 00:51:00,
2013-06-14 20:55:00,68.2,55.6,29.95,SW,226,2.0,0.0,64,0.00,,OVC003,0.00,VWS V14.01,2013-06-15 00:55:00,
2013-06-14 20:56:00,68.4,55.8,29.95,SW,225,2.0,0.0,64,0.00,,OVC003,0.00,VWS V14.01,2013-06-15 00:56:00,
2013-06-14 21:00:00,67.9,55.7,29.95,SW,225,2.0,0.0,65,0.00,,OVC003,0.00,VWS V14.01,2013-06-15 01:00:00,
2013-06-14 21:01:00,68.1,55.9,29.95,SW,225,2.0,0.0,65,0.00,,OVC003,0.00,VWS V14.01,2013-06-15 01:01:00,
2013-06-14 21:05:00,67.6,55.8,29.95,SW,225,2.0,0.0,66,0.00,,OVC003,0.00,VWS V14.01,2013-06-15 01:05:00,
2013-06-14 21:06:00,67.8,55.6,29.95,SW,226,2.0,0.0,65,0.00,,OVC003,0.00,VWS V14.01,2013-06-15 01:06:00,
2013-06-14 21:10:00,67.2,55.9,29.95,SW,226,2.0,0.0,67,0.00,,OVC003,0.00,VWS V14.01,2013-06-15 01:10:00,
2013-06-14 21:11:00,67.5,55.8,29.95,SW,226,2.0,0.0,66,0.00,,OVC003,0.00,VWS V14.01,2013-06-15 01:11:00,
2013-06-14 21:15:00,66.8,55.5,29.96,SW,226,2.0,0.0,67,0.00,,OVC003,0.00,VWS V14.01,2013-06-15 01:15:00,
2013-06-14 21:16:00,67.1,55.8,29.95,SW,225,2.0,0.0,67,0.00,,OVC003,0.00,VWS V14.01,2013-06-15 01:16:00,
2013-06-14 21:20:00,66.5,55.2,29.96,SW,226,2.0,0.0,67,0.00,,OVC003,0.00,VWS V14.01,2013-06-15 01:20:00,
2013-06-14 21:21:00,66.7,55.0,29.96,SW,225,2.0,0.0,66,0.00,,OVC003,0.00,VWS V14.01,2013-06-15 01:21:00,
2013-06-14 21:25:00,66.0,55.2,29.96,SW,226,2.0,0.0,68,0.00,,OVC003,0.00,VWS V14.01,2013-06-15 01:25:00,
2013-06-14 21:26:00,66.3,55.0,29.96,SW,225,2.0,0.0,67,0.00,,OVC003,0.00,VWS V14.01,2013-06-15 01:26:00,
2013-06-14 21:30:00,65.7,54.9,29.96,SW,226,2.0,0.0,68,0.00,,OVC003,0.00,VWS V14.01,2013-06-15 01:30:00,
2013-06-14 21:31:00,65.9,55.0,29.96,SW,226,2.0,0.0,68,0.00,,OVC003,0.00,VWS V14.01,2013-06-15 01:31:00,
2013-06-14 21:35:00,65.3,54.9,29.96,SW,225,2.0,0.0,69,0.00,,OVC003,0.00,VWS V14.01,2013-06-15 01:35:00,
2013-06-14 21:36:00,65.6,54.8,29.96,SW,226,2.0,0.0,68,0.00,,OVC003,0.00,VWS V14.01,2013-06-15 01:36:00,
2013-06-14 21:40:00,64.9,54.5,29.96,SW,226,2.0,0.0,69,0.00,,OVC003,0.00,VWS V14.01,2013-06-15 01:40:00,
2013-06-14 21:41:00,65.2,54.8,29.96,SW,226,2.0,0.0,69,0.00,,OVC003,0.00,VWS V14.01,2013-06-15 01:41:00,
2013-06-14 21:45:00,64.5,54.1,29.96,SW,226,2.0,0.0,69,0.00,,OVC003,0.00,VWS V14.01,2013-06-15 01:45:00,
2013-06-14 21:46:00,64.8,54.4,29.96,SW,226,2.0,0.0,69,0.00,,OVC003,0.00,VWS V14.01,2013-06-15 01:46:00,
2013-06-14 21:50:00,64.2,54.2,29.96,SW,226,2.0,0.0,70,0.00,,OVC003,0.00,VWS V14.01,2013-06-15 01:50:00,
2013-06-14 21:51:00,64.4,54.0,29.96,SW,225,2.0,0.0,69,0.00,,OVC003,0.00,VWS V14.01,2013-06-15 01:51:00,
2013-06-14 21:55:00,63.8,53.8,29.96,SW,226,2.0,0.0,70,0.00,,OVC003,0.00,VWS V14.01,2013-06-15 01:55:00,
2013-06-14 21:56:00,64.1,54.1,29.96,SW,226,2.0,0.0,70,0.00,,OVC003,0.00,VWS V14.01,2013-06-15 01:56:00,
2013-06-14 22:00:00,63.5,53.9,29.97,SW,226,2.0,0.0,71,0.00,,OVC003,0.00,VWS V14.01,2013-06-15 02:00:00,
2013-06-14 22:01:00,63.7,53.7,29.96,SW,225,2.0,0.0,70,0.00,,OVC003,0.00,VWS V14.01,2013-06-15 02:01:00,
2013-06-14 22:05:00,63.1,53.6,29.97,SW,226,2.0,0.0,71,0.00,,OVC003,0.00,VWS V14.01,2013-06-15 02:05:00,
2013-06-14 22:06:00,63.4,53.8,29.97,SW,225,2.0,0.0,71,0.00,,OVC003,0.00,VWS V14.01,2013-06-15 02:06:00,
2013-06-14 22:10:00,62.8,53.7,29.97,SW,226,2.0,0.0,72,0.00,,OVC003,0.00,VWS V14.01,2013-06-15 02:10:00,
2013-06-14 22:11:00,63.0,53.5,29.97,SW,226,2.0,0.0,71,0.00,,OVC003,0.00,VWS V14.01,2013-06-15 02:11:00,
2013-06-14 22:15:00,62.5,53.4,29.97,SW,226,2.0,0.0,72,0.00,,OVC003,0.00,VWS V14.01,2013-06-15 02:15:00,
2013-06-14 22:16:00,62.7,53.5,29.97,SW,225,2.0,0.0,72,0.00,,OVC003,0.00,VWS V14.01,2013-06-15 02:16:00,
2013-06-14 22:20:00,62.2,53.1,29.97,SW,226,2.0,0.0,72,0.00,,OVC003,0.00,VWS V14.01,2013-06-15 02:20:00,
2013-06-14 22:21:00,62.4,53.3,29.97,SW,225,2.0,0.0,72,0.00,,OVC003,0.00,VWS V14.01,2013-06-15 02:21:00,
2013-06-14 22:25:00,61.8,53.1,29.97,SW,226,2.0,0.0,73,0.00,,OVC003,0.00,VWS V14.01,2013-06-15 02:25:00,
2013-06-14 22:26:00,62.1,53.0,29.97,SW,226,2.0,0.0,72,0.00,,OVC003,0.00,VWS V14.01,2013-06-15 02:26:00,
2013-06-14 22:30:00,61.6,52.9,29.98,SW,226,2.0,0.0,73,0.00,,OVC003,0.00,VWS V14.01,2013-06-15 02:30:00,
2013-06-14 22:31:00,61.8,53.1,29.97,SW,226,2.0,0.0,73,0.00,,OVC003,0.00,VWS V14.01,2013-06-15 02:31:00,
2013-06-14 22:35:00,61.4,53.0,29.98,SW,225,2.0,0.0,74,0.00,,OVC003,0.00,VWS V14.01,2013-06-15 02:35:00,
2013-06-14 22:36:00,61.5,52.8,29.98,SW,226,2.0,0.0,73,0.00,,OVC003,0.00,VWS V14.01,2013-06-15 02:36:00,
2013-06-14 22:40:00,61.1,53.1,29.98,SW,226,2.0,0.0,75,0.00,,OVC003,0.00,VWS V14.01,2013-06-15 02:40:00,
2013-06-14 22:41:00,61.3,53.0,29.98,SW,226,2.0,0.0,74,0.00,,OVC003,0.00,VWS V14.01,2013-06-15 02:41:00,
2013-06-14 22:45:00,60.8,52.8,29.98,SW,226,2.0,0.0,75,0.00,,OVC003,0.00,VWS V14.01,2013-06-15 02:45:00,
2013-06-14 22:46:00,61.0,53.0,29.98,SW,225,2.0,0.0,75,0.00,,OVC003,0.00,VWS V14.01,2013-06-15 02:46:00,
2013-06-14 22:50:00,60.6,53.0,29.98,SW,226,2.0,0.0,76,0.00,,OVC003,0.00,VWS V14.01,2013-06-15 02:50:00,
2013-06-14 22:51:00,60.8,52.8,29.98,SW,226,2.0,0.0,75,0.00,,OVC003,0.00,VWS V14.01,2013-06-15 02:51:00,
2013-06-14 22:55:00,60.3,53.1,29.98,SW,226,2.0,0.0,77,0.00,,OVC003,0.00,VWS V14.01,2013-06-15 02:55:00,
2013-06-14 22:57:00,60.5,52.9,29.98,SW,226,2.0,0.0,76,0.00,,OVC003,0.00,VWS V14.01,2013-06-15 02:57:00,
2013-06-14 23:00:00,60.0,53.1,29.98,SW,226,2.0,0.0,78,0.00,,OVC003,0.00,VWS V14.01,2013-06-15 03:00:00,
2013-06-14 23:02:00,60.2,53.0,29.98,SW,226,2.0,0.0,77,0.00,,OVC003,0.00,VWS V14.01,2013-06-15 03:02:00,
2013-06-14 23:05:00,59.6,53.1,29.98,SW,226,2.0,0.0,79,0.00,,OVC003,0.00,VWS V14.01,2013-06-15 03:05:00,
2013-06-14 23:07:00,59.9,53.0,29.98,SW,225,2.0,0.0,78,0.00,,OVC003,0.00,VWS V14.01,2013-06-15 03:07:00,
2013-06-14 23:10:00,59.0,52.8,29.98,SW,225,2.0,0.0,80,0.00,,OVC003,0.00,VWS V14.01,2013-06-15 03:10:00,
2013-06-14 23:12:00,59.5,53.0,29.98,SW,226,2.0,0.0,79,0.00,,OVC003,0.00,VWS V14.01,2013-06-15 03:12:00,
2013-06-14 23:15:00,58.8,53.0,29.98,SW,225,2.0,2.0,81,0.00,,OVC003,0.00,VWS V14.01,2013-06-15 03:15:00,
2013-06-14 23:17:00,59.0,52.8,29.98,SW,226,3.0,3.0,80,0.00,,OVC003,0.00,VWS V14.01,2013-06-15 03:17:00,
2013-06-14 23:20:00,58.2,52.1,29.98,SW,226,2.0,2.0,80,0.00,,OVC003,0.00,VWS V14.01,2013-06-15 03:20:00,
2013-06-14 23:22:00,58.5,52.7,29.98,SW,226,2.0,2.0,81,0.00,,OVC003,0.00,VWS V14.01,2013-06-15 03:22:00,
2013-06-14 23:25:00,58.0,51.9,29.98,SW,226,2.0,0.0,80,0.00,,OVC003,0.00,VWS V14.01,2013-06-15 03:25:00,
2013-06-14 23:27:00,58.1,51.6,29.98,SW,225,2.0,0.0,79,0.00,,OVC003,0.00,VWS V14.01,2013-06-15 03:27:00,
2013-06-14 23:30:00,57.8,51.7,29.98,SW,226,2.0,0.0,80,0.00,,OVC003,0.00,VWS V14.01,2013-06-15 03:30:00,
2013-06-14 23:32:00,58.0,51.9,29.98,SW,225,2.0,0.0,80,0.00,,OVC003,0.00,VWS V14.01,2013-06-15 03:32:00,
2013-06-14 23:35:00,57.7,51.2,29.98,SW,226,2.0,0.0,79,0.00,,OVC003,0.00,VWS V14.01,2013-06-15 03:35:00,
2013-06-14 23:37:00,57.8,51.7,29.98,SW,226,2.0,0.0,80,0.00,,OVC003,0.00,VWS V14.01,2013-06-15 03:37:00,
2013-06-14 23:40:00,57.5,51.0,29.98,SW,226,2.0,0.0,79,0.00,,OVC003,0.00,VWS V14.01,2013-06-15 03:40:00,
2013-06-14 23:42:00,57.6,51.1,29.98,SW,226,2.0,0.0,79,0.00,,OVC003,0.00,VWS V14.01,2013-06-15 03:42:00,
2013-06-14 23:45:00,57.3,50.5,29.98,SW,225,2.0,0.0,78,0.00,,OVC003,0.00,VWS V14.01,2013-06-15 03:45:00,
2013-06-14 23:47:00,57.4,51.0,29.98,SW,226,2.0,0.0,79,0.00,,OVC003,0.00,VWS V14.01,2013-06-15 03:47:00,
2013-06-14 23:50:00,57.1,50.3,29.98,SW,225,2.0,0.0,78,0.00,,OVC003,0.00,VWS V14.01,2013-06-15 03:50:00,
2013-06-14 23:52:00,57.2,50.4,29.98,SW,226,2.0,0.0,78,0.00,,OVC003,0.00,VWS V14.01,2013-06-15 03:52:00,
2013-06-14 23:55:00,56.9,50.1,29.98,SW,226,2.0,0.0,78,0.00,,OVC003,0.00,VWS V14.01,2013-06-15 03:55:00,
2013-06-14 23:57:00,57.0,49.9,29.98,SW,225,2.0,0.0,77,0.00,,OVC003,0.00,VWS V14.01,2013-06-15 03:57:00,